Time;durP1;ratioP1;P1;durP2;ratioP2;P2;SDS_P1;SDS_P2;PMS_P1;PMS_P2;Temp;Humidity;BMP_temperature;BMP_pressure;BME280_temperature;BME280_humidity;BME280_pressure;Samples;Min_cycle;Max_cycle;Signal;HPM_P1;HPM_P2
2022/01/29 00:01:52;;;;;;;61.10;29.00;;;30.00;65.80;;;;;;5126603;28;20049;-54
2022/01/29 00:04:18;;;;;;;72.65;27.02;;;30.00;66.20;;;;;;5126661;28;20019;-54
2022/01/29 00:06:45;;;;;;;78.97;26.15;;;30.10;66.10;;;;;;5107547;28;20020;-52
2022/01/29 00:09:15;;;;;;;108.72;24.95;;;30.00;66.00;;;;;;5126864;28;20043;-51
2022/01/29 00:11:43;;;;;;;66.68;22.55;;;30.00;66.10;;;;;;5108272;28;20024;-55
2022/01/29 00:14:10;;;;;;;51.47;21.73;;;30.00;66.10;;;;;;5126305;28;20016;-51
2022/01/29 00:16:37;;;;;;;65.32;18.17;;;30.00;66.20;;;;;;5126401;28;20274;-55
2022/01/29 00:19:04;;;;;;;44.35;18.35;;;29.90;66.40;;;;;;5126156;28;20022;-51
2022/01/29 00:21:31;;;;;;;43.78;15.55;;;29.90;66.40;;;;;;5126070;28;20031;-50
2022/01/29 00:23:57;;;;;;;44.90;14.75;;;29.90;66.60;;;;;;5125570;28;20051;-50
2022/01/29 00:26:26;;;;;;;40.28;14.27;;;29.90;66.60;;;;;;5125978;28;20207;-53
2022/01/29 00:28:53;;;;;;;43.72;14.23;;;29.90;66.60;;;;;;5125700;28;20015;-52
2022/01/29 00:31:19;;;;;;;28.38;12.88;;;29.90;66.70;;;;;;5126015;28;20084;-62
2022/01/29 00:33:47;;;;;;;29.10;13.35;;;29.90;66.80;;;;;;5125808;28;20037;-51
2022/01/29 00:36:14;;;;;;;29.42;14.40;;;29.90;66.70;;;;;;5125447;28;20094;-51
2022/01/29 00:38:41;;;;;;;36.00;14.60;;;29.90;66.70;;;;;;5107759;28;20026;-51
2022/01/29 00:41:07;;;;;;;26.00;12.60;;;29.90;66.80;;;;;;5107700;28;20334;-55
2022/01/29 00:43:34;;;;;;;25.38;13.40;;;29.90;66.70;;;;;;5113625;28;20016;-56
2022/01/29 00:46:02;;;;;;;33.25;12.85;;;29.90;66.70;;;;;;5093162;28;20108;-55
2022/01/29 00:48:30;;;;;;;29.13;11.10;;;29.80;66.50;;;;;;5074433;28;20024;-54
2022/01/29 00:51:00;;;;;;;23.90;10.77;;;29.80;66.40;;;;;;5098090;28;20375;-51
2022/01/29 00:53:27;;;;;;;18.05;10.65;;;29.80;66.50;;;;;;5102142;28;20312;-56
2022/01/29 00:55:53;;;;;;;22.90;11.05;;;29.80;66.20;;;;;;5094937;28;20209;-52
2022/01/29 00:58:23;;;;;;;18.65;10.52;;;29.80;66.10;;;;;;5094870;28;20016;-53
2022/01/29 01:00:51;;;;;;;24.60;10.60;;;29.80;66.10;;;;;;5097796;28;20012;-59
2022/01/29 01:03:17;;;;;;;19.75;9.95;;;29.80;65.90;;;;;;5101434;28;20218;-54
2022/01/29 01:05:44;;;;;;;22.67;9.88;;;29.80;65.90;;;;;;5093431;28;20134;-52
2022/01/29 01:08:15;;;;;;;28.27;9.55;;;29.80;65.70;;;;;;5091595;28;20202;-51
2022/01/29 01:10:42;;;;;;;31.23;9.98;;;29.70;65.50;;;;;;5094486;28;20005;-47
2022/01/29 01:13:10;;;;;;;79.25;11.88;;;29.70;65.50;;;;;;5092763;28;20020;-53
2022/01/29 01:15:38;;;;;;;34.55;9.90;;;29.70;65.40;;;;;;5095200;28;20099;-52
2022/01/29 01:18:05;;;;;;;39.63;10.05;;;29.70;65.40;;;;;;5097205;28;20039;-52
2022/01/29 01:20:31;;;;;;;22.73;9.13;;;29.70;65.30;;;;;;5093784;28;20205;-50
2022/01/29 01:22:58;;;;;;;17.92;9.50;;;29.70;65.20;;;;;;5097425;28;20020;-47
2022/01/29 01:25:25;;;;;;;15.00;9.15;;;29.70;65.10;;;;;;5104146;28;20065;-51
2022/01/29 01:27:52;;;;;;;16.15;8.98;;;29.60;65.00;;;;;;5086259;28;20567;-47
2022/01/29 01:30:22;;;;;;;14.48;8.98;;;29.60;65.00;;;;;;5104300;28;20054;-57
2022/01/29 01:32:49;;;;;;;16.40;9.43;;;29.60;65.10;;;;;;5103369;28;20023;-53
2022/01/29 01:35:25;;;;;;;20.15;9.48;;;29.60;65.60;;;;;;5104193;28;20320;-50
2022/01/29 01:37:58;;;;;;;19.65;9.45;;;29.60;65.00;;;;;;5104702;28;20028;-47
2022/01/29 01:40:28;;;;;;;21.80;9.77;;;29.60;65.00;;;;;;5103869;28;20324;-47
2022/01/29 01:42:59;;;;;;;24.42;10.07;;;29.60;64.90;;;;;;5086850;28;20028;-50
2022/01/29 01:45:33;;;;;;;15.23;9.10;;;29.60;64.80;;;;;;5104029;28;20016;-48
2022/01/29 01:48:04;;;;;;;22.63;9.98;;;29.60;64.90;;;;;;5104580;28;20032;-49
2022/01/29 01:50:36;;;;;;;18.60;9.25;;;29.60;64.80;;;;;;5103232;28;20224;-49
2022/01/29 01:53:05;;;;;;;12.48;8.88;;;29.60;64.90;;;;;;5085875;28;20024;-47
2022/01/29 01:55:33;;;;;;;18.08;9.18;;;29.50;64.70;;;;;;5103682;28;20061;-55
2022/01/29 01:58:01;;;;;;;15.43;9.45;;;29.50;64.60;;;;;;5104170;28;20032;-49
2022/01/29 02:00:29;;;;;;;15.13;8.98;;;29.50;64.70;;;;;;5103533;28;20032;-47
2022/01/29 02:02:56;;;;;;;12.77;9.57;;;29.50;64.70;;;;;;5102537;28;20216;-51
2022/01/29 02:05:23;;;;;;;10.68;8.35;;;29.50;64.70;;;;;;5103985;28;20184;-53
2022/01/29 02:07:53;;;;;;;15.18;8.75;;;29.40;64.50;;;;;;5103784;28;20328;-51
2022/01/29 02:10:20;;;;;;;10.05;9.07;;;29.40;64.60;;;;;;5103378;28;20030;-48
2022/01/29 02:12:52;;;;;;;15.23;9.43;;;29.40;64.50;;;;;;5102561;28;20024;-52
2022/01/29 02:15:20;;;;;;;13.35;9.68;;;29.40;64.60;;;;;;5103851;28;20009;-56
2022/01/29 02:17:48;;;;;;;12.07;10.20;;;29.40;64.50;;;;;;5104214;28;20087;-48
2022/01/29 02:20:19;;;;;;;14.60;9.70;;;29.40;64.60;;;;;;5103641;28;20087;-54
2022/01/29 02:22:46;;;;;;;11.23;9.38;;;29.40;64.50;;;;;;5104258;28;20028;-50
2022/01/29 02:25:31;;;;;;;12.48;9.55;;;29.40;64.40;;;;;;5090419;28;20083;-57
2022/01/29 02:28:08;;;;;;;13.50;9.43;;;29.40;64.40;;;;;;5084198;28;20024;-56
2022/01/29 02:30:38;;;;;;;16.30;10.50;;;29.30;64.20;;;;;;5098144;28;20025;-46
2022/01/29 02:33:09;;;;;;;11.95;9.65;;;29.30;64.30;;;;;;5087224;28;20221;-50
2022/01/29 02:35:46;;;;;;;15.02;9.63;;;29.30;64.40;;;;;;5087102;28;20043;-50
2022/01/29 02:38:14;;;;;;;11.13;9.50;;;29.30;64.40;;;;;;5086996;28;20024;-48
2022/01/29 02:40:49;;;;;;;12.50;9.77;;;29.30;64.40;;;;;;5086854;28;20208;-47
2022/01/29 02:43:20;;;;;;;13.90;9.65;;;29.30;64.40;;;;;;5087038;28;20040;-48
2022/01/29 02:45:48;;;;;;;13.80;9.77;;;29.30;64.50;;;;;;5087420;28;20038;-46
2022/01/29 02:48:15;;;;;;;13.23;10.30;;;29.30;64.30;;;;;;5087470;28;20338;-48
2022/01/29 02:50:42;;;;;;;14.05;9.68;;;29.30;64.10;;;;;;5085050;28;20316;-50
2022/01/29 02:53:09;;;;;;;12.60;10.05;;;29.30;64.10;;;;;;5095054;28;20087;-50
2022/01/29 02:55:37;;;;;;;11.70;9.73;;;29.30;64.40;;;;;;5092805;28;20008;-49
2022/01/29 02:58:04;;;;;;;14.82;10.63;;;29.30;64.00;;;;;;5078461;28;20021;-49
2022/01/29 03:00:31;;;;;;;13.43;10.13;;;29.30;64.00;;;;;;5087332;28;20085;-49
2022/01/29 03:02:58;;;;;;;18.25;10.70;;;29.20;63.80;;;;;;5087401;28;20089;-49
2022/01/29 03:05:24;;;;;;;11.45;10.23;;;29.20;63.70;;;;;;5086562;28;20246;-48
2022/01/29 03:07:51;;;;;;;12.70;10.80;;;29.20;63.60;;;;;;5086743;28;20036;-56
2022/01/29 03:10:18;;;;;;;13.25;10.60;;;29.20;63.80;;;;;;5086547;28;20044;-53
2022/01/29 03:12:45;;;;;;;16.27;11.38;;;29.20;63.60;;;;;;5086948;28;20020;-53
2022/01/29 03:15:13;;;;;;;12.93;10.45;;;29.10;63.60;;;;;;5086768;28;20051;-53
2022/01/29 03:17:41;;;;;;;16.73;10.90;;;29.20;63.80;;;;;;5086926;28;20027;-51
2022/01/29 03:20:09;;;;;;;16.23;11.05;;;29.20;63.80;;;;;;5068423;28;20028;-52
2022/01/29 03:22:36;;;;;;;13.38;10.40;;;29.10;63.80;;;;;;5086811;28;20092;-48
2022/01/29 03:25:04;;;;;;;15.23;11.02;;;29.10;64.10;;;;;;5086300;28;20040;-49
2022/01/29 03:27:30;;;;;;;14.45;10.35;;;29.20;65.00;;;;;;5086466;28;20013;-52
2022/01/29 03:29:57;;;;;;;13.18;9.88;;;29.10;64.80;;;;;;5086194;28;20401;-49
2022/01/29 03:32:23;;;;;;;13.15;9.73;;;29.20;65.30;;;;;;5086055;28;20021;-48
2022/01/29 03:34:50;;;;;;;13.52;10.52;;;29.10;65.60;;;;;;5086005;28;20024;-50
2022/01/29 03:37:17;;;;;;;12.88;9.93;;;29.10;65.90;;;;;;5086411;28;20020;-54
2022/01/29 03:39:45;;;;;;;12.55;10.52;;;29.10;66.80;;;;;;5086178;28;20248;-48
2022/01/29 03:42:13;;;;;;;12.63;10.57;;;29.10;66.60;;;;;;5085316;28;20077;-48
2022/01/29 03:44:40;;;;;;;13.13;9.52;;;29.10;66.60;;;;;;5086328;28;20043;-50
2022/01/29 03:47:07;;;;;;;20.50;10.20;;;29.10;66.80;;;;;;5086120;28;20249;-49
2022/01/29 03:49:34;;;;;;;13.70;9.63;;;29.00;66.70;;;;;;5086041;28;20028;-53
2022/01/29 03:52:01;;;;;;;12.82;10.05;;;29.00;66.90;;;;;;5085870;28;20016;-58
2022/01/29 03:54:27;;;;;;;11.32;10.00;;;29.00;67.00;;;;;;5085860;28;20087;-55
2022/01/29 03:56:54;;;;;;;11.05;9.90;;;29.00;67.00;;;;;;5085936;28;20021;-53
2022/01/29 03:59:20;;;;;;;17.33;10.10;;;29.00;67.10;;;;;;5085579;28;20021;-56
2022/01/29 04:01:47;;;;;;;12.73;9.68;;;28.90;67.20;;;;;;5085862;28;20016;-48
2022/01/29 04:04:13;;;;;;;12.07;10.13;;;28.90;67.10;;;;;;5085616;28;20268;-48
2022/01/29 04:06:40;;;;;;;13.57;9.98;;;28.90;67.00;;;;;;5085482;28;20023;-58
2022/01/29 04:09:10;;;;;;;12.88;9.95;;;28.90;66.80;;;;;;5085133;28;20037;-56
2022/01/29 04:11:38;;;;;;;13.38;9.75;;;28.80;66.90;;;;;;5085566;28;20024;-51
2022/01/29 04:14:15;;;;;;;14.27;10.32;;;28.80;66.90;;;;;;5085217;28;20043;-57
2022/01/29 04:16:41;;;;;;;11.98;9.88;;;28.80;66.90;;;;;;5085571;28;20024;-54
2022/01/29 04:19:08;;;;;;;13.52;10.50;;;28.80;66.70;;;;;;5085108;28;20048;-52
2022/01/29 04:21:35;;;;;;;17.13;10.57;;;28.80;66.50;;;;;;5085301;28;20102;-51
2022/01/29 04:24:01;;;;;;;10.95;9.80;;;28.80;66.30;;;;;;5086089;28;20092;-59
2022/01/29 04:26:33;;;;;;;11.02;9.68;;;28.80;66.10;;;;;;5085142;28;20091;-49
2022/01/29 04:29:03;;;;;;;12.55;9.98;;;28.80;66.20;;;;;;5085041;28;20035;-50
2022/01/29 04:31:38;;;;;;;13.20;10.23;;;28.80;66.20;;;;;;5085633;28;20036;-48
2022/01/29 04:34:04;;;;;;;12.80;10.30;;;28.80;66.40;;;;;;5084761;28;20015;-56
2022/01/29 04:36:31;;;;;;;10.77;9.68;;;28.80;66.40;;;;;;5085309;28;20058;-58
2022/01/29 04:38:57;;;;;;;10.48;9.52;;;28.80;66.40;;;;;;5084924;28;20020;-52
2022/01/29 04:41:24;;;;;;;12.38;10.20;;;28.80;66.50;;;;;;5084921;28;20032;-54
2022/01/29 04:43:50;;;;;;;11.20;9.50;;;28.70;67.10;;;;;;5085057;28;20046;-53
2022/01/29 04:46:17;;;;;;;12.35;10.57;;;28.70;66.60;;;;;;5084835;28;20384;-53
2022/01/29 04:48:43;;;;;;;15.82;10.45;;;28.70;66.50;;;;;;5084594;28;20024;-49
2022/01/29 04:51:10;;;;;;;11.57;10.25;;;28.70;66.50;;;;;;5084782;28;20024;-49
2022/01/29 04:53:40;;;;;;;11.13;9.80;;;28.70;66.40;;;;;;5084672;28;20012;-53
2022/01/29 04:56:07;;;;;;;11.15;9.82;;;28.70;66.40;;;;;;5084906;28;20047;-52
2022/01/29 04:58:35;;;;;;;11.73;10.50;;;28.70;66.40;;;;;;5084617;28;20020;-49
2022/01/29 05:01:02;;;;;;;11.00;9.90;;;28.70;66.40;;;;;;5084815;28;20078;-48
2022/01/29 05:03:29;;;;;;;11.10;10.00;;;28.70;66.40;;;;;;5090995;28;20027;-52
2022/01/29 05:05:56;;;;;;;10.77;9.77;;;28.70;66.50;;;;;;5105086;28;20031;-53
2022/01/29 05:08:23;;;;;;;10.88;9.77;;;28.70;66.50;;;;;;5104604;28;20047;-46
2022/01/29 05:10:52;;;;;;;11.15;10.05;;;28.70;66.50;;;;;;5092853;28;20019;-52
2022/01/29 05:13:23;;;;;;;14.13;10.27;;;28.60;66.50;;;;;;5084427;28;20036;-52
2022/01/29 05:27:01;;;;;;;12.25;10.40;;;28.60;66.20;;;;;;5084165;28;20235;-54
2022/01/29 05:29:31;;;;;;;12.48;10.15;;;28.50;66.00;;;;;;5084137;28;20021;-52
2022/01/29 05:31:59;;;;;;;11.07;9.93;;;28.50;66.10;;;;;;5084108;28;20020;-50
2022/01/29 05:34:25;;;;;;;15.90;10.52;;;28.50;66.00;;;;;;5084083;28;20216;-48
2022/01/29 05:36:53;;;;;;;13.57;10.48;;;28.40;65.90;;;;;;5084237;28;20062;-53
2022/01/29 05:39:21;;;;;;;11.48;10.35;;;28.50;66.00;;;;;;5084027;28;20012;-48
2022/01/29 05:41:48;;;;;;;17.77;10.57;;;28.50;65.90;;;;;;5084336;28;20025;-53
2022/01/29 05:44:15;;;;;;;12.27;10.70;;;28.50;65.70;;;;;;5084003;28;20020;-52
2022/01/29 05:46:41;;;;;;;12.40;10.20;;;28.40;65.70;;;;;;5084108;28;20027;-52
2022/01/29 05:49:08;;;;;;;15.30;10.90;;;28.40;66.00;;;;;;5083875;28;20043;-49
2022/01/29 05:51:35;;;;;;;16.17;11.30;;;28.40;65.90;;;;;;5084052;28;20028;-51
2022/01/29 05:54:02;;;;;;;12.88;10.57;;;28.40;66.00;;;;;;5084300;28;20020;-54
2022/01/29 05:56:29;;;;;;;15.68;11.10;;;28.40;66.00;;;;;;5084228;28;20196;-52
2022/01/29 05:58:57;;;;;;;18.08;11.30;;;28.40;66.10;;;;;;5084202;28;20027;-50
2022/01/29 06:01:24;;;;;;;15.27;10.90;;;28.40;65.90;;;;;;5084132;28;20024;-52
2022/01/29 06:03:51;;;;;;;12.48;9.93;;;28.40;66.00;;;;;;5084187;28;20020;-49
2022/01/29 06:06:17;;;;;;;13.23;10.85;;;28.50;66.20;;;;;;5088146;28;20091;-48
2022/01/29 06:08:44;;;;;;;15.98;10.65;;;28.50;66.10;;;;;;5087482;28;20051;-52
2022/01/29 06:11:10;;;;;;;14.63;10.90;;;28.50;66.10;;;;;;5087685;28;20021;-48
2022/01/29 06:13:37;;;;;;;13.20;10.55;;;28.50;66.00;;;;;;5088494;28;20076;-48
2022/01/29 06:16:04;;;;;;;12.30;10.32;;;28.40;66.10;;;;;;5101996;28;20035;-47
2022/01/29 06:18:31;;;;;;;12.10;10.75;;;28.40;65.90;;;;;;5093763;28;20020;-57
2022/01/29 06:21:04;;;;;;;12.15;10.77;;;28.50;66.10;;;;;;5087864;28;20047;-51
2022/01/29 06:23:33;;;;;;;12.13;10.45;;;28.50;66.20;;;;;;5087347;28;20028;-49
2022/01/29 06:26:03;;;;;;;15.27;10.55;;;28.40;66.20;;;;;;5087578;28;20028;-49
2022/01/29 06:28:30;;;;;;;29.40;12.32;;;28.40;66.30;;;;;;5087547;28;20012;-49
2022/01/29 06:30:56;;;;;;;26.00;11.98;;;28.40;66.40;;;;;;5087550;28;20024;-50
2022/01/29 06:33:23;;;;;;;22.73;12.50;;;28.40;66.60;;;;;;5087443;28;20016;-49
2022/01/29 06:35:50;;;;;;;27.10;12.48;;;28.40;66.70;;;;;;5087472;28;20083;-50
2022/01/29 06:38:16;;;;;;;31.02;11.90;;;28.40;66.80;;;;;;5087221;28;20016;-54
2022/01/29 06:40:44;;;;;;;20.55;11.88;;;28.40;67.00;;;;;;5087060;28;20031;-53
2022/01/29 06:43:11;;;;;;;15.75;10.73;;;28.30;67.20;;;;;;5087405;28;20038;-51
2022/01/29 06:45:40;;;;;;;21.27;11.25;;;28.30;67.30;;;;;;5086810;28;20028;-51
2022/01/29 06:48:07;;;;;;;18.33;10.75;;;28.30;67.30;;;;;;5086992;28;20013;-56
2022/01/29 06:50:35;;;;;;;19.00;11.32;;;28.30;67.50;;;;;;5087415;28;20021;-54
2022/01/29 06:53:02;;;;;;;20.05;11.68;;;28.20;67.50;;;;;;5087491;28;20024;-50
2022/01/29 06:55:29;;;;;;;20.63;10.88;;;28.30;67.80;;;;;;5087118;28;20013;-52
2022/01/29 06:57:55;;;;;;;16.65;11.60;;;28.20;68.00;;;;;;5087590;28;20388;-51
2022/01/29 07:00:22;;;;;;;14.52;10.88;;;28.20;68.00;;;;;;5087208;28;20050;-50
2022/01/29 07:02:49;;;;;;;15.88;11.00;;;28.20;68.00;;;;;;5087260;28;20058;-52
2022/01/29 07:05:16;;;;;;;16.27;11.63;;;28.10;68.10;;;;;;5087413;28;20021;-50
2022/01/29 07:07:42;;;;;;;16.88;11.40;;;28.20;68.20;;;;;;5086802;28;20044;-53
2022/01/29 07:10:10;;;;;;;14.05;11.40;;;28.10;68.30;;;;;;5086666;28;20017;-53
2022/01/29 07:12:40;;;;;;;18.25;11.07;;;28.10;68.40;;;;;;5086887;28;20024;-53
2022/01/29 07:15:08;;;;;;;15.77;11.50;;;28.10;68.50;;;;;;5086335;28;20016;-57
2022/01/29 07:17:35;;;;;;;12.82;11.05;;;28.10;68.60;;;;;;5087004;28;20308;-55
2022/01/29 07:20:04;;;;;;;16.30;11.15;;;28.10;68.70;;;;;;5086612;28;20031;-54
2022/01/29 07:22:31;;;;;;;16.42;11.60;;;28.10;68.90;;;;;;5087162;28;20100;-54
2022/01/29 07:24:57;;;;;;;15.40;11.55;;;28.00;69.00;;;;;;5086397;28;20096;-54
2022/01/29 07:27:24;;;;;;;16.85;11.48;;;28.00;69.00;;;;;;5086681;28;20035;-53
2022/01/29 07:29:50;;;;;;;15.93;11.70;;;28.00;69.10;;;;;;5086230;28;20048;-48
2022/01/29 07:32:17;;;;;;;17.73;11.70;;;28.00;69.20;;;;;;5086616;28;20032;-50
2022/01/29 07:34:44;;;;;;;13.15;11.13;;;28.00;69.40;;;;;;5086270;28;20262;-48
2022/01/29 07:37:10;;;;;;;18.52;12.13;;;28.00;69.40;;;;;;5086280;28;20092;-49
2022/01/29 07:39:37;;;;;;;18.50;11.88;;;28.00;69.40;;;;;;5086268;28;20016;-50
2022/01/29 07:42:07;;;;;;;13.85;11.55;;;27.90;69.50;;;;;;5086510;28;20048;-49
2022/01/29 07:44:33;;;;;;;14.18;12.15;;;27.90;69.60;;;;;;5085930;28;20016;-54
2022/01/29 07:47:00;;;;;;;14.63;11.55;;;27.90;69.80;;;;;;5086168;28;20046;-50
2022/01/29 07:49:26;;;;;;;13.43;11.82;;;27.90;69.90;;;;;;5085861;28;20024;-49
2022/01/29 07:51:53;;;;;;;17.25;12.35;;;27.90;70.10;;;;;;5085959;28;20028;-54
2022/01/29 07:54:20;;;;;;;13.38;11.38;;;27.90;70.20;;;;;;5086039;28;20027;-50
2022/01/29 07:56:46;;;;;;;12.88;11.60;;;27.80;70.10;;;;;;5085989;28;20204;-47
2022/01/29 07:59:13;;;;;;;15.25;12.00;;;27.80;70.20;;;;;;5085871;28;20397;-51
2022/01/29 08:01:39;;;;;;;17.85;11.98;;;27.80;70.40;;;;;;5085873;28;20032;-47
2022/01/29 08:04:06;;;;;;;17.70;11.38;;;27.80;70.40;;;;;;5085793;28;20016;-51
2022/01/29 08:06:35;;;;;;;15.40;12.50;;;27.80;70.50;;;;;;5085699;28;20061;-53
2022/01/29 08:09:08;;;;;;;14.77;11.75;;;27.70;70.60;;;;;;5085674;28;20037;-52
2022/01/29 08:11:35;;;;;;;15.55;11.52;;;27.70;70.70;;;;;;5085648;28;20354;-47
2022/01/29 08:14:02;;;;;;;16.60;12.20;;;27.70;70.80;;;;;;5085697;28;20062;-53
2022/01/29 08:16:31;;;;;;;14.82;12.18;;;27.70;70.90;;;;;;5085839;28;20029;-49
2022/01/29 08:18:58;;;;;;;17.23;12.25;;;27.70;71.10;;;;;;5085538;28;20035;-52
2022/01/29 08:21:25;;;;;;;14.77;12.45;;;27.70;71.20;;;;;;5085491;28;20276;-48
2022/01/29 08:23:51;;;;;;;19.45;12.40;;;27.70;71.20;;;;;;5085154;28;20048;-53
2022/01/29 08:26:18;;;;;;;18.73;13.82;;;27.60;71.20;;;;;;5085033;28;20052;-55
2022/01/29 08:28:44;;;;;;;16.58;13.05;;;27.60;71.20;;;;;;5084914;28;20070;-51
2022/01/29 08:31:11;;;;;;;15.52;12.68;;;27.60;71.20;;;;;;5085320;28;20052;-55
2022/01/29 08:33:38;;;;;;;18.10;12.65;;;27.60;71.10;;;;;;5085142;28;20021;-51
2022/01/29 08:36:05;;;;;;;15.02;13.02;;;27.60;70.90;;;;;;5066983;28;20062;-51
2022/01/29 08:38:32;;;;;;;17.35;12.60;;;27.60;70.50;;;;;;5085314;28;20023;-52
2022/01/29 08:40:58;;;;;;;14.77;12.18;;;27.60;70.10;;;;;;5084930;28;20082;-51
2022/01/29 08:43:26;;;;;;;17.90;12.60;;;27.50;69.70;;;;;;5084653;28;20335;-54
2022/01/29 08:45:55;;;;;;;17.27;12.57;;;27.50;69.20;;;;;;5084856;28;20028;-54
2022/01/29 08:48:22;;;;;;;14.27;12.85;;;27.50;69.00;;;;;;5085278;28;20031;-53
2022/01/29 08:50:49;;;;;;;16.35;12.60;;;27.50;68.70;;;;;;5084985;28;20012;-52
2022/01/29 08:53:17;;;;;;;15.60;12.52;;;27.50;68.50;;;;;;5084611;28;20040;-52
2022/01/29 08:55:44;;;;;;;16.38;12.93;;;27.40;68.40;;;;;;5084428;28;20243;-51
2022/01/29 08:58:12;;;;;;;15.75;12.70;;;27.40;68.00;;;;;;5084539;28;20083;-55
2022/01/29 09:00:44;;;;;;;17.35;13.48;;;27.40;67.80;;;;;;5084279;28;20028;-53
2022/01/29 09:03:13;;;;;;;18.27;13.10;;;27.40;67.40;;;;;;5085079;28;20261;-59
2022/01/29 09:05:39;;;;;;;20.92;13.30;;;27.40;67.40;;;;;;5084810;28;20031;-52
2022/01/29 09:08:06;;;;;;;16.40;12.85;;;27.40;67.10;;;;;;5084314;28;20040;-57
2022/01/29 09:10:33;;;;;;;19.58;13.20;;;27.40;67.20;;;;;;5084653;28;20026;-52
2022/01/29 09:13:00;;;;;;;21.15;13.20;;;27.30;66.90;;;;;;5085026;28;20239;-52
2022/01/29 09:15:26;;;;;;;16.38;13.07;;;27.30;66.80;;;;;;5084575;28;20024;-52
2022/01/29 09:17:53;;;;;;;19.90;13.82;;;27.30;66.60;;;;;;5084912;28;20052;-60
2022/01/29 09:20:19;;;;;;;22.02;13.98;;;27.30;66.50;;;;;;5084362;28;20026;-56
2022/01/29 09:22:46;;;;;;;26.75;14.05;;;27.30;66.30;;;;;;5084970;28;20028;-55
2022/01/29 09:25:13;;;;;;;33.92;13.98;;;27.30;66.40;;;;;;5084048;28;20087;-53
2022/01/29 09:27:40;;;;;;;19.58;12.55;;;27.30;65.80;;;;;;5084265;28;20304;-51
2022/01/29 09:30:07;;;;;;;16.73;13.00;;;27.30;65.60;;;;;;5084160;28;20025;-52
2022/01/29 09:32:34;;;;;;;19.77;12.38;;;27.30;65.40;;;;;;5084717;28;20306;-57
2022/01/29 09:35:00;;;;;;;16.00;12.88;;;27.30;65.00;;;;;;5084590;28;20028;-52
2022/01/29 09:37:27;;;;;;;20.30;14.35;;;27.30;64.70;;;;;;5084240;28;20352;-50
2022/01/29 09:39:54;;;;;;;21.27;13.43;;;27.30;64.50;;;;;;5083304;28;20202;-55
2022/01/29 09:42:21;;;;;;;20.80;13.15;;;27.30;64.60;;;;;;5084401;28;20020;-51
2022/01/29 09:44:49;;;;;;;21.17;13.18;;;27.30;64.30;;;;;;5083967;28;20033;-53
2022/01/29 09:47:18;;;;;;;19.15;12.95;;;27.20;64.30;;;;;;5084415;28;20428;-52
2022/01/29 09:49:45;;;;;;;21.52;12.80;;;27.30;64.30;;;;;;5083648;28;20028;-55
2022/01/29 09:52:12;;;;;;;20.77;13.48;;;27.20;64.00;;;;;;5084224;28;20025;-53
2022/01/29 09:54:39;;;;;;;18.70;13.60;;;27.20;64.10;;;;;;5084411;28;20079;-57
2022/01/29 09:57:06;;;;;;;15.95;12.70;;;27.20;63.90;;;;;;5084038;28;20289;-52
2022/01/29 09:59:33;;;;;;;16.92;12.65;;;27.20;64.10;;;;;;5083880;28;20087;-53
2022/01/29 10:01:59;;;;;;;17.40;12.85;;;27.20;64.00;;;;;;5084505;28;20025;-55
2022/01/29 10:04:29;;;;;;;16.10;12.40;;;27.20;64.10;;;;;;5084043;28;20035;-49
2022/01/29 10:07:20;;;;;;;17.23;12.15;;;27.20;64.00;;;;;;5083865;28;20023;-49
2022/01/29 10:09:47;;;;;;;13.88;12.18;;;27.20;64.30;;;;;;5085795;28;20315;-54
2022/01/29 10:12:29;;;;;;;15.73;12.25;;;27.20;63.80;;;;;;5096402;28;20043;-51
2022/01/29 10:14:58;;;;;;;21.80;12.20;;;27.20;63.80;;;;;;5083617;28;20368;-53
2022/01/29 10:17:46;;;;;;;18.35;12.82;;;27.20;63.80;;;;;;5083872;28;20021;-49
2022/01/29 10:20:24;;;;;;;18.88;12.07;;;27.20;63.60;;;;;;5083571;28;20220;-49
2022/01/29 10:23:01;;;;;;;14.90;12.27;;;27.20;63.40;;;;;;5084107;28;20279;-52
2022/01/29 10:25:32;;;;;;;16.50;12.63;;;27.10;63.50;;;;;;5083395;28;20046;-55
2022/01/29 10:28:08;;;;;;;20.42;12.43;;;27.00;65.10;;;;;;5083874;28;20091;-52
2022/01/29 10:30:50;;;;;;;16.02;12.48;;;27.10;65.90;;;;;;5083421;28;20213;-54
2022/01/29 10:33:32;;;;;;;16.90;12.52;;;27.00;66.90;;;;;;5083767;28;20033;-52
2022/01/29 10:36:19;;;;;;;16.25;12.75;;;26.90;68.20;;;;;;5083461;28;20313;-55
2022/01/29 10:38:57;;;;;;;14.55;12.00;;;26.90;68.60;;;;;;5083873;28;20327;-57
2022/01/29 10:41:28;;;;;;;15.45;12.00;;;26.90;69.60;;;;;;5083429;28;20060;-56
2022/01/29 10:46:41;;;;;;;12.73;11.30;;;27.00;70.40;;;;;;5083426;28;20021;-52
2022/01/29 10:49:08;;;;;;;16.33;11.77;;;27.00;70.30;;;;;;5066103;28;20315;-51
2022/01/29 10:51:35;;;;;;;15.25;12.25;;;26.90;70.80;;;;;;5089880;28;21127;-49
2022/01/29 10:54:19;;;;;;;29.45;12.70;;;26.90;71.10;;;;;;5122617;28;20091;-53
2022/01/29 10:56:55;;;;;;;16.20;11.50;;;26.90;71.50;;;;;;5087161;28;20017;-54
2022/01/29 10:59:22;;;;;;;19.48;11.63;;;26.90;71.60;;;;;;5086931;28;20338;-51
2022/01/29 11:01:56;;;;;;;13.40;11.48;;;26.90;71.40;;;;;;5086997;28;20342;-52
2022/01/29 11:04:26;;;;;;;19.52;11.55;;;26.80;71.70;;;;;;5086659;28;20032;-48
2022/01/29 11:06:54;;;;;;;32.78;12.05;;;26.90;71.90;;;;;;5086915;28;20093;-54
2022/01/29 11:09:22;;;;;;;23.70;12.25;;;26.90;72.10;;;;;;5086453;28;20083;-51
2022/01/29 11:11:50;;;;;;;17.05;11.65;;;26.90;72.10;;;;;;5086626;28;20308;-51
2022/01/29 11:14:19;;;;;;;25.55;12.05;;;26.90;72.30;;;;;;5087670;28;20027;-54
2022/01/29 11:16:47;;;;;;;23.77;12.80;;;26.90;72.40;;;;;;5087754;28;20016;-52
2022/01/29 11:19:16;;;;;;;24.23;13.05;;;26.80;72.40;;;;;;5086357;28;20020;-51
2022/01/29 11:21:45;;;;;;;23.85;13.13;;;26.80;72.50;;;;;;5081935;28;20029;-53
2022/01/29 11:24:13;;;;;;;25.38;12.85;;;26.80;72.50;;;;;;5105479;28;20083;-52
2022/01/29 11:26:41;;;;;;;26.00;12.85;;;26.80;72.60;;;;;;5085146;28;20358;-52
2022/01/29 11:29:35;;;;;;;42.58;13.35;;;26.80;72.50;;;;;;5084353;28;20028;-55
2022/01/29 11:32:29;;;;;;;31.02;12.95;;;26.80;72.60;;;;;;5084890;28;20130;-51
2022/01/29 11:35:04;;;;;;;26.35;12.60;;;26.80;72.70;;;;;;5047779;28;20028;-52
2022/01/29 11:37:45;;;;;;;31.15;13.63;;;26.80;72.80;;;;;;5085276;28;20025;-52
2022/01/29 11:40:16;;;;;;;22.70;13.57;;;26.80;72.70;;;;;;5084650;28;20025;-54
2022/01/29 11:43:08;;;;;;;19.30;12.80;;;26.70;72.80;;;;;;5086247;28;20240;-51
2022/01/29 11:45:45;;;;;;;21.60;12.85;;;26.70;73.00;;;;;;5097399;28;20024;-53
2022/01/29 11:48:31;;;;;;;19.40;12.93;;;26.70;72.90;;;;;;5085739;28;20043;-51
2022/01/29 11:50:59;;;;;;;29.52;13.40;;;26.60;73.20;;;;;;5085701;28;20206;-51
2022/01/29 11:53:50;;;;;;;57.00;13.55;;;26.60;73.40;;;;;;5091256;28;20027;-51
2022/01/29 11:56:37;;;;;;;32.22;13.98;;;26.70;73.20;;;;;;5085756;28;20261;-52
2022/01/29 11:59:26;;;;;;;30.00;13.23;;;26.70;73.30;;;;;;5085582;28;20094;-51
2022/01/29 12:01:56;;;;;;;39.90;14.00;;;26.70;73.10;;;;;;5084902;28;20035;-52
2022/01/29 12:04:24;;;;;;;51.03;14.30;;;26.70;73.10;;;;;;5085499;28;20080;-51
2022/01/29 12:07:13;;;;;;;39.08;13.18;;;26.80;73.10;;;;;;5086111;28;20331;-53
2022/01/29 12:10:02;;;;;;;50.28;13.48;;;26.80;73.10;;;;;;5096895;28;20082;-51
2022/01/29 12:12:29;;;;;;;32.97;13.98;;;26.80;73.10;;;;;;5099611;28;20035;-55
2022/01/29 12:14:57;;;;;;;29.48;13.43;;;26.80;73.00;;;;;;5075148;28;20017;-56
2022/01/29 12:17:42;;;;;;;28.10;17.10;;;26.80;73.00;;;;;;5085798;28;20024;-50
2022/01/29 12:20:17;;;;;;;44.17;16.38;;;26.70;73.20;;;;;;5085164;28;20020;-53
2022/01/29 12:22:48;;;;;;;30.38;15.70;;;26.70;73.40;;;;;;5085486;28;20030;-55
2022/01/29 12:25:20;;;;;;;30.13;15.68;;;26.70;73.40;;;;;;5085288;28;20024;-52
2022/01/29 12:27:51;;;;;;;34.72;15.82;;;26.80;73.10;;;;;;5085528;28;20054;-52
2022/01/29 12:30:25;;;;;;;40.90;16.08;;;26.80;72.70;;;;;;5085090;28;20374;-51
2022/01/29 12:33:15;;;;;;;27.33;15.18;;;26.80;72.30;;;;;;5085418;28;20048;-53
2022/01/29 12:35:50;;;;;;;30.30;14.73;;;26.80;72.30;;;;;;5085230;28;20040;-55
2022/01/29 12:38:22;;;;;;;38.10;14.65;;;26.90;72.00;;;;;;5094439;28;20269;-51
2022/01/29 12:40:56;;;;;;;43.60;15.30;;;26.80;71.80;;;;;;5096575;28;20016;-53
2022/01/29 12:43:35;;;;;;;85.78;16.73;;;26.90;71.60;;;;;;5093350;28;20063;-52
2022/01/29 12:46:13;;;;;;;37.38;15.73;;;26.90;71.60;;;;;;5093448;28;20028;-52
2022/01/29 12:48:41;;;;;;;39.67;15.38;;;26.90;71.40;;;;;;5093330;28;20020;-51
2022/01/29 12:51:11;;;;;;;48.13;17.63;;;27.00;71.20;;;;;;5095138;28;20019;-46
2022/01/29 12:53:39;;;;;;;30.05;14.73;;;27.00;71.00;;;;;;5095369;28;20100;-51